Latest Coastal Weather Observations for Gladstone

IDQ60701

Issued at 5:21 pm EST Saturday 18 April 2015 (issued every 10 minutes, with the page automatically refreshed every 10 minutes)

About coastal observations | Map of coastal stations | Coastal observations for QLD | Marine services | Other Formats
Station Details ID: 039123 Name: GLADSTONE RADAR Lat: -23.86 Lon: 151.26 Height: 74.5 m
Data from the previous 72 hours. | See also: Recent months at Gladstone
Date/Time
EST
Temp

°C
Wind Pressure Rain
since 9am
mm
Weather Cloud Vis
km
Sea
Height
m
Swell
Dir
 
Speed
knots
Gust
knots
hPa Trend Height
m
Period
s
Dir
18/05:00pm 25.4 E 11 14 1017.5 - 0.0 - - - - - - -
18/04:30pm 25.4 E 12 17 1017.4 - 0.0 - - - - - - -
18/04:00pm 26.0 E 11 15 1017.4 - 0.0 - - - - - - -
18/03:30pm 26.4 E 11 14 1017.4 - 0.0 - - - - - - -
18/03:00pm 26.4 E 12 16 1017.5 - 0.0 - - - - - - -
18/02:30pm 27.6 E 13 18 1017.4 - 0.0 - - - - - - -
18/02:00pm 28.6 ENE 12 18 1017.5 - 0.0 - - - - - - -
18/01:30pm 28.7 ENE 14 19 1017.8 - 0.0 - - - - - - -
18/01:00pm 27.7 ENE 14 20 1018.0 - 0.0 - - - - - - -
18/12:30pm 28.5 ENE 12 17 1018.5 - 0.0 - - - - - - -
18/12:00pm 28.2 E 13 19 1018.9 - 0.0 - - - - - - -
18/11:30am 28.1 E 14 19 1019.4 - 0.0 - - - - - - -
18/11:00am 27.5 E 14 20 1019.9 - 0.0 - - - - - - -
18/10:30am 26.2 E 11 15 1020.1 - 0.0 - - - - - - -
18/10:00am 26.5 E 12 20 1020.2 - 0.0 - - - - - - -
18/09:30am 24.9 ESE 9 13 1020.5 - 0.0 - - - - - - -
18/09:00am 24.0 SE 7 11 1020.3 - 5.2 - - - - - - -
18/08:30am 22.7 SSE 7 10 1020.2 - 5.2 - - - - - - -
18/08:00am 21.7 SSE 6 9 1019.8 - 5.2 - - - - - - -
18/07:30am 21.1 S 5 7 1019.8 - 5.2 - - - - - - -
18/07:00am 20.8 SE 5 9 1019.1 - 5.2 - - - - - - -
18/06:30am 20.3 SE 7 9 1019.3 - 4.8 - - - - - - -
18/06:00am 20.5 ESE 6 9 1019.1 - 3.0 - - - - - - -
18/05:30am 20.7 SSE 9 12 1018.4 - 1.8 - - - - - - -
18/05:00am 21.0 SSE 9 13 1018.3 - 1.6 - - - - - - -
18/04:30am 21.1 SE 9 12 1018.3 - 1.6 - - - - - - -
18/04:00am 21.4 SSE 9 12 1018.5 - 1.6 - - - - - - -
18/03:30am 21.4 SSE 9 11 1018.4 - 1.6 - - - - - - -
18/03:00am 21.5 SSE 9 13 1018.4 - 1.6 - - - - - - -
18/02:30am 21.5 SSE 8 12 1018.5 - 1.6 - - - - - - -
18/02:00am 22.2 SSE 9 16 1018.7 - 1.6 - - - - - - -
18/01:30am 22.4 E 9 11 1018.7 - 1.6 - - - - - - -
18/01:00am 21.7 ENE 11 17 1018.8 - 1.6 - - - - - - -
18/12:39am 21.7 ENE 15 25 1019.1 - 1.6 - - - - - - -
18/12:30am 22.1 ENE 16 25 1019.0 - 1.0 - - - - - - -
18/12:26am 22.0 ENE 13 23 1019.0 - 1.0 - - - - - - -
 
Date/Time
EST
Temp

°C
Wind Pressure Rain
since 9am
mm
Weather Cloud Vis
km
Sea
Height
m
Swell
Dir
 
Speed
knots
Gust
knots
hPa Trend Height
m
Period
s
Dir
17/11:30pm 21.5 ESE 8 11 1019.5 - 1.0 - - - - - - -
17/11:00pm 21.6 ESE 8 15 1019.7 - 0.8 - - - - - - -
17/10:30pm 22.4 SSE 8 11 1019.7 - 0.0 - - - - - - -
17/10:00pm 22.9 ESE 12 20 1019.7 - 0.0 - - - - - - -
17/09:30pm 22.7 ESE 10 15 1020.0 - 0.0 - - - - - - -
17/09:00pm 22.9 ESE 13 20 1019.9 - 0.0 - - - - - - -
17/08:30pm 23.1 ESE 10 16 1019.6 - 0.0 - - - - - - -
17/08:00pm 23.7 SE 9 16 1019.5 - 0.0 - - - - - - -
17/07:30pm 23.8 SE 11 15 1019.2 - 0.0 - - - - - - -
17/07:00pm 24.3 ESE 13 22 1018.9 - 0.0 - - - - - - -
17/06:30pm 24.7 ESE 12 20 1018.6 - 0.0 - - - - - - -
17/06:00pm 24.6 E 13 19 1018.3 - 0.0 - - - - - - -
17/05:30pm 24.7 E 18 25 1017.8 - 0.0 - - - - - - -
17/05:00pm 25.0 E 16 22 1018.0 - 0.0 - - - - - - -
17/04:35pm 25.3 E 17 27 1017.9 - 0.0 - - - - - - -
17/04:30pm 25.3 E 17 22 1017.9 - 0.0 - - - - - - -
17/04:00pm 25.6 E 17 25 1017.6 - 0.0 - - - - - - -
17/03:30pm 26.4 E 18 24 1017.6 - 0.0 - - - - - - -
17/03:00pm 26.8 ESE 17 23 1017.7 - 0.0 - - - - - - -
17/02:30pm 27.4 E 17 23 1017.9 - 0.0 - - - - - - -
17/02:00pm 27.8 E 17 23 1017.9 - 0.0 - - - - - - -
17/01:30pm 27.7 E 16 23 1018.2 - 0.0 - - - - - - -
17/01:00pm 27.6 ESE 15 23 1018.7 - 0.0 - - - - - - -
17/12:30pm 28.7 E 14 22 1019.4 - 0.0 - - - - - - -
17/12:00pm 28.3 ESE 13 21 1020.1 - 0.0 - - - - - - -
17/11:30am 27.5 ESE 14 22 1020.6 - 0.0 - - - - - - -
17/11:00am 26.9 ESE 14 20 1021.1 - 0.0 - - - - - - -
17/10:30am 26.8 ESE 12 19 1021.5 - 0.0 - - - - - - -
17/10:00am 26.2 ESE 13 19 1021.9 - 0.0 - - - - - - -
17/09:30am 25.5 ESE 11 17 1022.1 - 0.0 - - - - - - -
17/09:00am 24.0 SE 11 18 1022.1 - 0.2 - - - - - - -
17/08:30am 22.8 SSE 10 16 1022.0 - 0.2 - - - - - - -
17/08:00am 22.0 SSE 8 15 1021.7 - 0.2 - - - - - - -
17/07:30am 22.1 SE 10 14 1021.3 - 0.2 - - - - - - -
17/07:00am 21.1 SE 12 19 1021.1 - 0.0 - - - - - - -
17/06:30am 20.1 SSE 10 15 1021.0 - 0.0 - - - - - - -
17/06:00am 20.0 SSE 9 14 1020.7 - 0.0 - - - - - - -
17/05:30am 20.5 SE 9 14 1020.4 - 0.0 - - - - - - -
17/05:00am 20.4 SSE 10 15 1020.1 - 0.0 - - - - - - -
17/04:30am 20.6 SE 10 17 1019.8 - 0.0 - - - - - - -
17/04:00am 20.5 SSE 9 15 1019.7 - 0.0 - - - - - - -
17/03:30am 20.6 S 9 15 1019.4 - 0.0 - - - - - - -
17/03:00am 20.2 SSE 8 11 1019.6 - 0.0 - - - - - - -
17/02:30am 20.1 SSE 9 14 1019.9 - 0.0 - - - - - - -
17/02:00am 20.9 SE 10 16 1020.5 - 0.0 - - - - - - -
17/01:30am 21.8 SSE 9 16 1020.5 - 0.0 - - - - - - -
17/01:00am 21.9 SSE 9 14 1020.9 - 0.0 - - - - - - -
17/12:30am 21.9 SSE 9 15 1021.2 - 0.0 - - - - - - -
17/12:00am 21.9 SSE 9 13 1021.5 - 0.0 - - - - - - -
 
Date/Time
EST
Temp

°C
Wind Pressure Rain
since 9am
mm
Weather Cloud Vis
km
Sea
Height
m
Swell
Dir
 
Speed
knots
Gust
knots
hPa Trend Height
m
Period
s
Dir
16/11:30pm 21.7 SSE 9 16 1021.7 - 0.0 - - - - - - -
16/11:00pm 21.7 SE 11 15 1021.7 - 0.0 - - - - - - -
16/10:30pm 21.9 SSE 10 14 1022.0 - 0.0 - - - - - - -
16/10:00pm 21.9 SSE 9 13 1022.3 - 0.0 - - - - - - -
16/09:30pm 22.1 SSE 9 12 1022.3 - 0.0 - - - - - - -
16/09:00pm 22.3 SE 9 12 1022.1 - 0.0 - - - - - - -
16/08:30pm 22.6 SE 8 10 1022.0 - 0.0 - - - - - - -
16/08:00pm 23.0 SE 9 13 1021.9 - 0.0 - - - - - - -
16/07:30pm 23.1 SE 9 15 1021.6 - 0.0 - - - - - - -
16/07:00pm 23.4 SE 10 16 1021.3 - 0.0 - - - - - - -
16/06:30pm 23.7 ESE 13 18 1020.8 - 0.0 - - - - - - -
16/06:00pm 24.1 ESE 16 23 1020.7 - 0.0 - - - - - - -
16/05:30pm 24.1 ESE 11 17 1020.7 - 0.0 - - - - - - -
16/05:00pm 24.5 E 13 19 1020.4 - 0.0 - - - - - - -
16/04:30pm 24.8 ESE 15 21 1020.4 - 0.0 - - - - - - -
16/04:00pm 25.0 ESE 13 20 1020.3 - 0.0 - - - - - - -
16/03:30pm 25.1 ESE 17 23 1020.3 - 0.0 - - - - - - -
16/03:00pm 26.1 ESE 16 24 1020.3 - 0.0 - - - - - - -
16/02:30pm 26.1 ESE 14 21 1020.4 - 0.0 - - - - - - -
16/02:00pm 25.5 SE 14 24 1020.6 - 0.0 - - - - - - -
16/01:30pm 22.5 ESE 13 22 1021.2 - 0.0 - - - - - - -
16/01:00pm 24.6 ESE 14 22 1021.4 - 0.0 - - - - - - -
16/12:30pm 23.9 ESE 16 24 1021.6 - 0.0 - - - - - - -
16/12:04pm 25.6 E 15 25 1021.9 - 0.0 - - - - - - -
16/12:00pm 25.9 E 13 21 1022.0 - 0.0 - - - - - - -
16/11:30am 25.8 ENE 13 19 1022.5 - 0.0 - - - - - - -
16/11:00am 26.5 ESE 15 23 1023.0 - 0.0 - - - - - - -
16/10:30am 25.3 ESE 11 18 1023.3 - 0.0 - - - - - - -
16/10:00am 25.8 ESE 15 21 1023.4 - 0.0 - - - - - - -
16/09:30am 25.9 SE 11 16 1023.6 - 0.0 - - - - - - -
16/09:00am 25.5 ESE 10 17 1023.6 - 0.0 - - - - - - -
16/08:30am 24.0 SE 13 20 1023.7 - 0.0 - - - - - - -
16/08:00am 22.9 SE 10 17 1023.5 - 0.0 - - - - - - -
16/07:30am 21.9 SSE 8 14 1023.4 - 0.0 - - - - - - -
16/07:00am 20.9 SSE 9 15 1023.1 - 0.0 - - - - - - -
16/06:30am 20.5 SSE 10 17 1023.0 - 0.0 - - - - - - -
16/06:00am 20.3 SSE 10 15 1022.6 - 0.0 - - - - - - -
16/05:30am 20.4 S 9 16 1022.5 - 0.0 - - - - - - -
16/05:00am 20.3 S 9 13 1022.2 - 0.0 - - - - - - -
16/04:30am 20.2 SSE 9 15 1022.0 - 0.0 - - - - - - -
16/04:00am 20.1 SSE 9 15 1021.9 - 0.0 - - - - - - -
16/03:30am 20.3 SSE 9 15 1022.0 - 0.0 - - - - - - -
16/03:00am 20.5 SSE 10 14 1022.1 - 0.0 - - - - - - -
16/02:30am 20.7 SSE 10 15 1022.3 - 0.0 - - - - - - -
16/02:00am 20.8 SSE 9 14 1022.6 - 0.0 - - - - - - -
16/01:30am 20.8 SSE 10 15 1022.8 - 0.0 - - - - - - -
16/01:00am 21.0 SSE 9 13 1023.0 - 0.0 - - - - - - -
16/12:30am 21.2 SSE 9 14 1023.2 - 0.0 - - - - - - -
16/12:00am 21.2 SE 9 14 1023.3 - 0.0 - - - - - - -
 
Date/Time
EST
Temp

°C
Wind Pressure Rain
since 9am
mm
Weather Cloud Vis
km
Sea
Height
m
Swell
Dir
 
Speed
knots
Gust
knots
hPa Trend Height
m
Period
s
Dir
15/11:30pm 21.4 SSE 8 12 1023.6 - 0.0 - - - - - - -
15/11:00pm 21.6 SSE 8 11 1023.6 - 0.0 - - - - - - -
15/10:30pm 21.8 SSE 7 12 1023.7 - 0.0 - - - - - - -
15/10:00pm 21.8 SE 8 11 1023.7 - 0.0 - - - - - - -
15/09:30pm 22.0 SE 9 12 1023.6 - 0.0 - - - - - - -
15/09:00pm 22.3 SE 9 13 1023.5 - 0.0 - - - - - - -
15/08:30pm 22.8 SE 10 15 1023.3 - 0.0 - - - - - - -
15/08:00pm 23.1 ESE 10 15 1023.2 - 0.0 - - - - - - -
15/07:30pm 23.4 ESE 12 17 1022.9 - 0.0 - - - - - - -
15/07:00pm 23.8 ESE 15 21 1022.5 - 0.0 - - - - - - -
15/06:30pm 23.9 ESE 13 20 1022.2 - 0.0 - - - - - - -
15/06:00pm 24.2 ESE 14 22 1022.0 - 0.0 - - - - - - -
15/05:30pm 24.6 ESE 14 24 1021.8 - 0.0 - - - - - - -

Other Formats:

Comma delimited format used in spreadsheet applications
http://www.bom.gov.au/fwo/IDQ60701/IDQ60701.94380.axf

JavaScript Object Notation format (JSON) in row-major order
http://www.bom.gov.au/fwo/IDQ60701/IDQ60701.94380.json